createdAt,value
2022-10-09T00:01:21.978Z,75.33
2022-10-09T00:03:53.170Z,75.65
2022-10-09T00:06:32.443Z,75.73
2022-10-09T00:09:01.250Z,75.31
2022-10-09T00:11:30.566Z,75.88
2022-10-09T00:13:59.327Z,76.10
2022-10-09T00:16:27.510Z,76.18
2022-10-09T00:18:56.094Z,76.34
2022-10-09T00:21:26.374Z,76.14
2022-10-09T00:23:56.782Z,76.21
2022-10-09T00:26:25.607Z,76.33
2022-10-09T00:28:53.996Z,76.14
2022-10-09T00:31:21.994Z,76.27
2022-10-09T00:33:49.908Z,76.43
2022-10-09T00:36:20.524Z,76.53
2022-10-09T00:38:48.404Z,76.57
2022-10-09T00:41:25.479Z,76.46
2022-10-09T00:44:00.141Z,76.45
2022-10-09T00:46:46.335Z,76.23
2022-10-09T00:49:16.227Z,76.37
2022-10-09T00:51:46.699Z,76.42
2022-10-09T00:54:17.368Z,76.35
2022-10-09T00:56:45.241Z,76.13
2022-10-09T00:59:13.541Z,76.10
2022-10-09T01:01:42.765Z,76.18
2022-10-09T01:04:10.553Z,76.13
2022-10-09T01:06:52.583Z,75.69
2022-10-09T01:09:47.475Z,75.88
2022-10-09T01:12:18.097Z,75.22
2022-10-09T01:14:57.142Z,75.39
2022-10-09T01:18:00.417Z,75.34
2022-10-09T01:21:01.795Z,75.00
2022-10-09T01:23:42.810Z,75.20
2022-10-09T01:26:32.199Z,75.38
2022-10-09T01:29:07.911Z,75.02
2022-10-09T01:31:41.236Z,75.53
2022-10-09T01:34:11.299Z,75.50
2022-10-09T01:36:40.786Z,75.49
2022-10-09T01:39:10.764Z,75.80
2022-10-09T01:41:38.986Z,75.82
2022-10-09T01:44:20.540Z,75.89
2022-10-09T01:46:48.977Z,75.79
2022-10-09T01:49:40.940Z,75.96
2022-10-09T01:52:45.586Z,75.58
2022-10-09T01:55:35.389Z,75.47
2022-10-09T01:58:28.081Z,76.14
2022-10-09T02:01:02.993Z,76.10
2022-10-09T02:03:31.609Z,75.89
2022-10-09T02:06:02.392Z,75.64
2022-10-09T02:08:32.972Z,75.71
2022-10-09T02:11:03.678Z,75.71
2022-10-09T02:13:33.472Z,75.75
2022-10-09T02:16:22.725Z,75.80
2022-10-09T02:19:03.169Z,75.38
2022-10-09T02:21:46.199Z,75.89
2022-10-09T02:24:20.003Z,75.99
2022-10-09T02:26:47.878Z,76.10
2022-10-09T02:29:16.638Z,76.14
2022-10-09T02:31:45.124Z,75.89
2022-10-09T02:34:17.835Z,75.92
2022-10-09T02:36:45.446Z,75.91
2022-10-09T02:39:13.965Z,75.90
2022-10-09T02:41:41.700Z,75.77
2022-10-09T02:44:09.415Z,75.50
2022-10-09T02:46:38.936Z,75.73
2022-10-09T02:49:07.804Z,75.68
2022-10-09T02:51:35.800Z,75.46
2022-10-09T02:54:03.453Z,75.44
2022-10-09T02:56:34.502Z,75.44
2022-10-09T02:59:04.495Z,75.43
2022-10-09T03:01:32.276Z,75.34
2022-10-09T03:04:00.198Z,75.29
2022-10-09T03:06:29.528Z,75.16
2022-10-09T03:08:57.829Z,75.32
2022-10-09T03:11:26.615Z,75.31
2022-10-09T03:13:55.591Z,75.21
2022-10-09T03:16:26.141Z,75.35
2022-10-09T03:18:54.952Z,75.47
2022-10-09T03:21:25.806Z,75.34
2022-10-09T03:23:54.506Z,75.42
2022-10-09T03:26:25.197Z,75.48
2022-10-09T03:28:54.205Z,75.66
2022-10-09T03:34:12.731Z,75.93
2022-10-09T03:36:40.888Z,75.95
2022-10-09T03:39:08.617Z,76.17
2022-10-09T03:41:36.260Z,76.33
2022-10-09T03:44:03.873Z,76.48
2022-10-09T03:46:31.650Z,76.52
2022-10-09T03:48:59.310Z,76.54
2022-10-09T03:51:27.677Z,76.66
2022-10-09T03:53:55.355Z,76.88
2022-10-09T03:56:23.008Z,76.89
2022-10-09T03:58:50.751Z,77.05
2022-10-09T04:01:18.454Z,77.15
2022-10-09T04:03:46.201Z,77.45
2022-10-09T04:06:13.860Z,77.46
2022-10-09T04:08:41.605Z,77.67
2022-10-09T04:11:09.270Z,77.73
2022-10-09T04:13:37.068Z,77.85
2022-10-09T04:16:04.813Z,77.96
2022-10-09T04:18:32.457Z,77.96
2022-10-09T04:21:00.173Z,78.07
2022-10-09T04:23:28.996Z,78.11
2022-10-09T04:25:59.558Z,78.36
2022-10-09T04:28:29.282Z,78.39
2022-10-09T04:31:00.575Z,78.39
2022-10-09T04:33:28.483Z,78.45
2022-10-09T04:35:56.839Z,78.58
2022-10-09T04:38:25.987Z,78.73
2022-10-09T04:41:01.762Z,78.78
2022-10-09T04:43:31.000Z,78.71
2022-10-09T04:45:59.061Z,78.82
2022-10-09T04:48:27.010Z,79.02
2022-10-09T04:50:54.733Z,78.89
2022-10-09T04:53:22.438Z,78.91
2022-10-09T04:55:50.629Z,78.95
2022-10-09T04:58:18.270Z,78.93
2022-10-09T05:00:47.324Z,79.07
2022-10-09T05:03:15.116Z,79.15
2022-10-09T05:05:42.812Z,79.23
2022-10-09T05:08:10.474Z,79.36
2022-10-09T05:10:38.158Z,79.40
2022-10-09T05:13:05.957Z,79.39
2022-10-09T05:15:37.799Z,79.46
2022-10-09T05:18:05.585Z,79.61
2022-10-09T05:20:33.273Z,79.62
2022-10-09T05:23:00.951Z,79.80
2022-10-09T05:25:28.624Z,79.74
2022-10-09T05:27:56.265Z,79.81
2022-10-09T05:30:23.900Z,79.82
2022-10-09T05:32:52.113Z,79.83
2022-10-09T05:35:19.939Z,79.93
2022-10-09T05:37:47.649Z,80.02
2022-10-09T05:40:15.328Z,79.97
2022-10-09T05:42:42.995Z,79.87
2022-10-09T05:45:12.009Z,79.95
2022-10-09T05:47:39.714Z,79.99
2022-10-09T05:50:07.617Z,80.03
2022-10-09T05:52:37.020Z,80.07
2022-10-09T05:55:04.888Z,80.07
2022-10-09T05:57:32.564Z,80.25
2022-10-09T06:00:00.261Z,80.17
2022-10-09T06:02:27.904Z,80.11
2022-10-09T06:04:55.734Z,80.19
2022-10-09T06:07:23.450Z,80.24
2022-10-09T06:09:51.869Z,80.23
2022-10-09T06:12:19.557Z,80.17
2022-10-09T06:14:47.472Z,79.98
2022-10-09T06:17:15.131Z,80.09
2022-10-09T06:19:42.874Z,79.91
2022-10-09T06:22:10.502Z,79.97
2022-10-09T06:24:38.422Z,79.93
2022-10-09T06:27:06.160Z,80.00
2022-10-09T06:29:33.821Z,79.96
2022-10-09T06:32:01.530Z,79.77
2022-10-09T06:34:29.202Z,79.92
2022-10-09T06:36:57.088Z,79.78
2022-10-09T06:39:24.892Z,79.77
2022-10-09T06:41:52.574Z,79.90
2022-10-09T06:44:20.226Z,79.76
2022-10-09T06:46:50.693Z,79.79
2022-10-09T06:49:18.489Z,79.68
2022-10-09T06:51:46.204Z,79.86
2022-10-09T06:54:17.141Z,79.59
2022-10-09T06:56:44.855Z,79.71
2022-10-09T06:59:12.971Z,79.66
2022-10-09T07:01:40.951Z,79.61
2022-10-09T07:04:15.439Z,79.56
2022-10-09T07:06:45.553Z,79.58
2022-10-09T07:09:15.591Z,79.64
2022-10-09T07:11:46.584Z,79.65
2022-10-09T07:14:16.925Z,79.54
2022-10-09T07:16:47.107Z,79.39
2022-10-09T07:19:16.271Z,79.47
2022-10-09T07:21:45.768Z,79.47
2022-10-09T07:24:14.589Z,79.23
2022-10-09T07:26:44.856Z,79.34
2022-10-09T07:29:15.955Z,79.30
2022-10-09T07:31:43.670Z,78.93
2022-10-09T07:34:11.772Z,79.19
2022-10-09T07:36:39.463Z,78.99
2022-10-09T07:39:07.522Z,79.60
2022-10-09T07:41:35.913Z,79.15
2022-10-09T07:44:03.520Z,79.35
2022-10-09T07:46:34.003Z,78.75
2022-10-09T07:49:03.056Z,78.78
2022-10-09T07:51:32.436Z,79.37
2022-10-09T07:54:02.855Z,77.47
2022-10-09T07:56:36.521Z,78.44
2022-10-09T07:59:06.939Z,78.75
2022-10-09T08:01:36.524Z,79.17
2022-10-09T08:04:05.103Z,78.05
2022-10-09T08:06:34.006Z,78.25
2022-10-09T08:09:04.017Z,78.37
2022-10-09T08:11:32.286Z,78.15
2022-10-09T08:14:00.467Z,77.94
2022-10-09T08:16:29.563Z,77.91
2022-10-09T08:18:59.151Z,77.84
2022-10-09T08:21:29.401Z,77.85
2022-10-09T08:23:58.776Z,77.78
2022-10-09T08:26:29.285Z,77.29
2022-10-09T08:29:00.226Z,78.44
2022-10-09T08:31:29.187Z,77.80
2022-10-09T08:33:58.611Z,78.33
2022-10-09T08:36:27.393Z,77.86
2022-10-09T08:38:55.084Z,77.42
2022-10-09T08:41:55.284Z,76.96
2022-10-09T08:44:46.881Z,76.37
2022-10-09T08:47:23.146Z,76.07
2022-10-09T08:49:58.812Z,76.23
2022-10-09T08:52:32.755Z,76.09
2022-10-09T08:55:07.462Z,75.98
2022-10-09T08:57:35.725Z,76.23
2022-10-09T09:00:03.337Z,77.11
2022-10-09T09:03:10.205Z,76.80
2022-10-09T09:05:50.728Z,76.10
2022-10-09T09:08:28.501Z,75.29
2022-10-09T09:11:24.135Z,75.71
2022-10-09T09:14:28.847Z,74.80
2022-10-09T09:17:25.619Z,75.42
2022-10-09T09:20:21.970Z,75.80
2022-10-09T09:22:51.467Z,75.92
2022-10-09T09:25:29.595Z,75.83
2022-10-09T09:28:03.290Z,75.41
2022-10-09T09:30:41.811Z,76.69
2022-10-09T09:33:12.549Z,76.39
2022-10-09T09:35:58.214Z,78.25
2022-10-09T09:38:26.062Z,78.32
2022-10-09T09:40:54.526Z,77.26
2022-10-09T09:43:24.636Z,77.14
2022-10-09T09:45:59.030Z,75.64
2022-10-09T09:48:37.020Z,74.77
2022-10-09T09:51:27.565Z,73.95
2022-10-09T09:54:06.871Z,74.04
2022-10-09T09:56:59.874Z,73.66
2022-10-09T09:59:32.804Z,74.25
2022-10-09T10:02:11.810Z,72.86
2022-10-09T10:04:49.798Z,72.79
2022-10-09T10:07:32.442Z,73.17
2022-10-09T10:10:09.033Z,71.49
2022-10-09T10:12:49.230Z,71.63
2022-10-09T10:15:29.497Z,71.79
2022-10-09T10:18:04.497Z,70.93
2022-10-09T10:20:34.604Z,71.64
2022-10-09T10:23:02.272Z,71.56
2022-10-09T10:25:35.135Z,71.53
2022-10-09T10:28:14.239Z,71.30
2022-10-09T10:30:43.410Z,71.86
2022-10-09T10:33:18.758Z,71.50
2022-10-09T10:35:50.191Z,73.16
2022-10-09T10:38:58.493Z,72.98
2022-10-09T10:41:35.116Z,74.08
2022-10-09T10:44:20.088Z,73.11
2022-10-09T10:46:53.581Z,72.04
2022-10-09T10:49:23.450Z,74.08
2022-10-09T10:51:54.854Z,73.41
2022-10-09T10:54:46.233Z,72.71
2022-10-09T10:57:31.100Z,72.42
2022-10-09T11:00:09.257Z,71.82
2022-10-09T11:02:56.041Z,72.02
2022-10-09T11:05:33.299Z,73.10
2022-10-09T11:08:32.623Z,72.78
2022-10-09T11:11:06.866Z,73.22
2022-10-09T11:14:02.438Z,72.70
2022-10-09T11:16:36.100Z,71.70
2022-10-09T11:19:30.168Z,72.05
2022-10-09T11:22:07.983Z,72.07
2022-10-09T11:25:03.473Z,72.29
2022-10-09T11:27:55.864Z,72.55
2022-10-09T11:30:23.610Z,71.62
2022-10-09T11:33:06.402Z,73.17
2022-10-09T11:35:53.176Z,72.70
2022-10-09T11:38:26.806Z,72.32
2022-10-09T11:40:55.694Z,72.53
2022-10-09T11:43:26.232Z,72.56
2022-10-09T11:46:26.977Z,71.98
2022-10-09T11:49:21.315Z,71.44
2022-10-09T11:52:05.958Z,71.37
2022-10-09T11:54:34.547Z,72.46
2022-10-09T11:57:06.577Z,72.55
2022-10-09T11:59:37.539Z,72.19
2022-10-09T12:02:28.900Z,72.80
2022-10-09T12:04:57.840Z,75.01
2022-10-09T12:07:35.767Z,75.02
2022-10-09T12:10:10.216Z,74.71
2022-10-09T12:12:39.883Z,74.68
2022-10-09T12:15:54.566Z,73.90
2022-10-09T12:18:28.149Z,72.49
2022-10-09T12:20:57.546Z,73.89
2022-10-09T12:23:31.062Z,74.09
2022-10-09T12:26:00.207Z,72.98
2022-10-09T12:28:39.526Z,72.60
2022-10-09T12:31:18.583Z,71.97
2022-10-09T12:33:55.804Z,73.37
2022-10-09T12:36:26.794Z,72.46
2022-10-09T12:38:54.995Z,73.16
2022-10-09T12:41:27.539Z,72.47
2022-10-09T12:43:57.321Z,72.47
2022-10-09T12:46:29.859Z,72.39
2022-10-09T12:48:58.477Z,73.29
2022-10-09T12:51:28.048Z,72.68
2022-10-09T12:53:56.435Z,72.10
2022-10-09T12:56:39.592Z,72.60
2022-10-09T12:59:08.465Z,72.28
2022-10-09T13:01:36.923Z,72.04
2022-10-09T13:04:11.704Z,71.69
2022-10-09T13:06:45.853Z,71.90
2022-10-09T13:09:41.013Z,72.44
2022-10-09T13:12:22.069Z,70.84
2022-10-09T13:14:52.721Z,72.15
2022-10-09T13:17:34.606Z,71.60
2022-10-09T13:20:25.543Z,71.94
2022-10-09T13:23:05.138Z,71.71
2022-10-09T13:25:43.273Z,71.61
2022-10-09T13:28:21.476Z,72.01
2022-10-09T13:30:49.264Z,72.45
2022-10-09T13:33:17.650Z,72.42
2022-10-09T13:35:45.782Z,72.75
2022-10-09T13:38:18.513Z,73.12
2022-10-09T13:40:46.155Z,73.33
2022-10-09T13:43:22.049Z,72.72
2022-10-09T13:45:49.823Z,71.77
2022-10-09T13:48:18.603Z,71.09
2022-10-09T13:50:47.109Z,71.98
2022-10-09T13:53:14.781Z,71.70
2022-10-09T13:55:42.573Z,71.40
2022-10-09T13:58:10.375Z,71.08
2022-10-09T14:00:38.610Z,70.82
2022-10-09T14:03:06.409Z,70.49
2022-10-09T14:05:34.034Z,70.38
2022-10-09T14:08:01.885Z,70.39
2022-10-09T14:10:29.587Z,70.29
2022-10-09T14:12:57.361Z,69.69
2022-10-09T14:15:25.040Z,70.27
2022-10-09T14:17:52.641Z,70.12
2022-10-09T14:20:21.006Z,70.31
2022-10-09T14:22:48.833Z,70.36
2022-10-09T14:25:16.798Z,70.48
2022-10-09T14:27:44.431Z,70.55
2022-10-09T14:30:12.602Z,70.53
2022-10-09T14:32:40.237Z,70.57
2022-10-09T14:35:08.486Z,70.72
2022-10-09T14:37:41.524Z,70.68
2022-10-09T14:40:11.147Z,70.74
2022-10-09T14:42:39.873Z,70.81
2022-10-09T14:45:08.825Z,70.87
2022-10-09T14:47:36.638Z,70.59
2022-10-09T14:50:05.083Z,70.98
2022-10-09T14:52:32.722Z,71.11
2022-10-09T14:55:00.449Z,71.20
2022-10-09T14:57:31.644Z,71.40
2022-10-09T15:00:03.395Z,71.36
2022-10-09T15:02:31.080Z,71.66
2022-10-09T15:04:58.711Z,71.88
2022-10-09T15:07:29.081Z,72.20
2022-10-09T15:09:58.017Z,72.17
2022-10-09T15:12:25.749Z,72.36
2022-10-09T15:14:53.490Z,72.65
2022-10-09T15:17:21.121Z,72.79
2022-10-09T15:19:48.911Z,72.87
2022-10-09T15:22:16.587Z,72.99
2022-10-09T15:24:44.211Z,73.13
2022-10-09T15:27:11.875Z,73.21
2022-10-09T15:29:39.582Z,73.32
2022-10-09T15:32:07.274Z,73.21
2022-10-09T15:34:38.748Z,73.18
2022-10-09T15:37:08.489Z,73.33
2022-10-09T15:39:36.341Z,73.38
2022-10-09T15:42:04.626Z,73.71
2022-10-09T15:44:32.303Z,73.83
2022-10-09T15:46:59.975Z,73.99
2022-10-09T15:49:27.616Z,74.04
2022-10-09T15:51:55.249Z,74.23
2022-10-09T15:54:23.022Z,74.61
2022-10-09T15:56:50.775Z,75.37
2022-10-09T15:59:18.461Z,75.93
2022-10-09T16:01:46.311Z,76.10
2022-10-09T16:04:14.067Z,75.48
2022-10-09T16:06:41.717Z,75.27
2022-10-09T16:09:09.471Z,75.08
2022-10-09T16:11:37.164Z,75.50
2022-10-09T16:14:05.594Z,75.33
2022-10-09T16:16:33.348Z,75.71
2022-10-09T16:19:04.092Z,75.36
2022-10-09T16:21:32.047Z,75.12
2022-10-09T16:24:00.954Z,75.17
2022-10-09T16:26:30.353Z,75.55
2022-10-09T16:28:58.498Z,75.82
2022-10-09T16:31:29.371Z,75.77
2022-10-09T16:33:57.421Z,75.86
2022-10-09T16:36:25.310Z,75.88
2022-10-09T16:38:53.111Z,75.94
2022-10-09T16:41:23.032Z,76.09
2022-10-09T16:43:55.549Z,76.30
2022-10-09T16:46:27.205Z,76.72
2022-10-09T16:48:56.573Z,76.77
2022-10-09T16:51:28.017Z,76.65
2022-10-09T16:53:58.456Z,76.96
2022-10-09T16:56:32.456Z,77.08
2022-10-09T16:59:02.699Z,77.75
2022-10-09T17:01:31.243Z,78.10
2022-10-09T17:04:00.258Z,79.01
2022-10-09T17:06:28.834Z,79.45
2022-10-09T17:08:59.172Z,80.19
2022-10-09T17:11:30.101Z,79.62
2022-10-09T17:13:58.871Z,80.98
2022-10-09T17:16:29.429Z,81.53
2022-10-09T17:18:57.299Z,81.18
2022-10-09T17:21:27.874Z,82.10
2022-10-09T17:24:02.261Z,81.92
2022-10-09T17:26:30.442Z,81.47
2022-10-09T17:28:59.627Z,80.54
2022-10-09T17:31:28.706Z,79.40
2022-10-09T17:33:59.754Z,78.43
2022-10-09T17:36:29.845Z,78.70
2022-10-09T17:38:58.256Z,78.52
2022-10-09T17:41:27.731Z,78.51
2022-10-09T17:43:57.126Z,78.64
2022-10-09T17:46:26.322Z,79.07
2022-10-09T17:48:54.499Z,79.45
2022-10-09T17:51:43.619Z,79.83
2022-10-09T17:54:18.073Z,80.10
2022-10-09T17:56:46.333Z,80.81
2022-10-09T17:59:14.250Z,80.80
2022-10-09T18:01:42.186Z,80.94
2022-10-09T18:04:15.024Z,81.45
2022-10-09T18:06:42.745Z,81.70
2022-10-09T18:09:10.840Z,81.84
2022-10-09T18:11:38.616Z,81.89
2022-10-09T18:14:06.540Z,82.01
2022-10-09T18:16:37.606Z,82.14
2022-10-09T18:19:08.624Z,82.10
2022-10-09T18:21:36.753Z,82.38
2022-10-09T18:24:04.581Z,82.40
2022-10-09T18:26:32.517Z,82.57
2022-10-09T18:29:01.802Z,82.65
2022-10-09T18:31:30.378Z,82.62
2022-10-09T18:33:59.795Z,82.78
2022-10-09T18:36:32.747Z,82.88
2022-10-09T18:39:06.817Z,83.05
2022-10-09T18:41:34.557Z,83.31
2022-10-09T18:44:03.442Z,83.42
2022-10-09T18:46:37.039Z,83.40
2022-10-09T18:49:09.732Z,83.79
2022-10-09T18:51:40.673Z,83.81
2022-10-09T18:54:08.823Z,84.14
2022-10-09T18:56:37.632Z,84.13
2022-10-09T18:59:09.607Z,84.43
2022-10-09T19:01:37.431Z,84.55
2022-10-09T19:04:06.019Z,84.54
2022-10-09T19:06:33.631Z,84.70
2022-10-09T19:09:02.053Z,84.73
2022-10-09T19:11:32.462Z,84.57
2022-10-09T19:14:03.195Z,84.77
2022-10-09T19:16:33.470Z,84.79
2022-10-09T19:19:01.242Z,84.67
2022-10-09T19:21:28.912Z,84.53
2022-10-09T19:23:56.891Z,84.52
2022-10-09T19:26:24.867Z,84.58
2022-10-09T19:28:53.050Z,84.61
2022-10-09T19:31:20.674Z,84.49
2022-10-09T19:33:48.761Z,84.58
2022-10-09T19:36:16.449Z,84.81
2022-10-09T19:38:45.033Z,85.02
2022-10-09T19:41:16.655Z,85.12
2022-10-09T19:43:44.410Z,85.19
2022-10-09T19:46:15.667Z,85.47
2022-10-09T19:48:43.345Z,85.74
2022-10-09T19:51:17.492Z,85.76
2022-10-09T19:53:45.912Z,85.86
2022-10-09T19:56:16.890Z,85.71
2022-10-09T19:58:46.137Z,85.85
2022-10-09T20:01:15.876Z,85.73
2022-10-09T20:03:44.028Z,85.65
2022-10-09T20:06:12.736Z,85.71
2022-10-09T20:08:42.448Z,85.79
2022-10-09T20:11:12.580Z,86.02
2022-10-09T20:13:42.218Z,86.15
2022-10-09T20:16:13.462Z,86.43
2022-10-09T20:18:43.587Z,86.44
2022-10-09T20:21:14.164Z,86.43
2022-10-09T20:23:42.533Z,86.63
2022-10-09T20:26:14.082Z,86.53
2022-10-09T20:28:42.358Z,86.84
2022-10-09T20:31:15.686Z,86.61
2022-10-09T20:33:43.998Z,86.54
2022-10-09T20:36:32.924Z,86.46
2022-10-09T20:39:02.464Z,86.98
2022-10-09T20:41:31.608Z,86.73
2022-10-09T20:44:01.440Z,86.94
2022-10-09T20:46:30.763Z,86.87
2022-10-09T20:48:58.582Z,86.96
2022-10-09T20:51:27.499Z,86.84
2022-10-09T20:54:00.218Z,86.99
2022-10-09T20:56:30.873Z,87.32
2022-10-09T20:58:58.996Z,87.38
2022-10-09T21:01:26.929Z,87.53
2022-10-09T21:03:56.146Z,87.40
2022-10-09T21:06:24.445Z,87.36
2022-10-09T21:08:52.116Z,87.54
2022-10-09T21:11:21.116Z,87.51
2022-10-09T21:13:50.260Z,87.22
2022-10-09T21:16:21.697Z,87.18
2022-10-09T21:18:53.660Z,87.25
2022-10-09T21:21:21.579Z,87.39
2022-10-09T21:23:52.389Z,87.32
2022-10-09T21:26:21.694Z,87.25
2022-10-09T21:28:51.667Z,87.54
2022-10-09T21:31:27.393Z,87.25
2022-10-09T21:33:55.364Z,87.00
2022-10-09T21:37:01.733Z,86.94
2022-10-09T21:39:31.759Z,87.63
2022-10-09T21:42:01.342Z,87.27
2022-10-09T21:44:29.002Z,87.25
2022-10-09T21:46:57.027Z,87.32
2022-10-09T21:49:27.034Z,87.40
2022-10-09T21:51:55.573Z,87.46
2022-10-09T21:54:23.613Z,87.34
2022-10-09T21:56:51.399Z,87.58
2022-10-09T21:59:19.171Z,87.52
2022-10-09T22:01:46.863Z,87.83
2022-10-09T22:04:14.664Z,87.87
2022-10-09T22:06:42.386Z,87.85
2022-10-09T22:09:11.411Z,88.03
2022-10-09T22:11:39.631Z,87.74
2022-10-09T22:14:08.335Z,87.61
2022-10-09T22:16:35.987Z,87.67
2022-10-09T22:19:03.762Z,87.87
2022-10-09T22:21:31.521Z,87.82
2022-10-09T22:24:01.161Z,87.73
2022-10-09T22:26:28.896Z,87.86
2022-10-09T22:28:56.586Z,87.68
2022-10-09T22:31:26.952Z,87.67
2022-10-09T22:33:56.577Z,87.79
2022-10-09T22:36:26.930Z,87.91
2022-10-09T22:38:56.384Z,87.88
2022-10-09T22:41:25.793Z,87.80
2022-10-09T22:43:55.687Z,87.92
2022-10-09T22:46:29.232Z,87.91
2022-10-09T22:48:57.506Z,87.91
2022-10-09T22:51:27.020Z,87.83
2022-10-09T22:53:55.422Z,87.76
2022-10-09T22:56:25.806Z,87.55
2022-10-09T22:58:54.295Z,87.59
2022-10-09T23:01:31.065Z,87.42
2022-10-09T23:04:00.206Z,87.57
2022-10-09T23:06:27.860Z,87.62
2022-10-09T23:08:55.582Z,87.63
2022-10-09T23:11:24.266Z,87.89
2022-10-09T23:13:59.709Z,87.86
2022-10-09T23:16:28.742Z,88.05
2022-10-09T23:18:58.233Z,88.03
2022-10-09T23:21:26.268Z,88.10
2022-10-09T23:23:54.201Z,87.84
2022-10-09T23:26:24.817Z,87.97
2022-10-09T23:28:54.646Z,88.22
2022-10-09T23:31:23.214Z,88.27
2022-10-09T23:33:50.979Z,88.28
2022-10-09T23:36:23.082Z,88.35
2022-10-09T23:38:51.978Z,88.40
2022-10-09T23:41:22.112Z,88.62
2022-10-09T23:43:50.037Z,88.56
2022-10-09T23:46:20.389Z,88.58
2022-10-09T23:48:49.274Z,88.72
2022-10-09T23:51:18.306Z,88.55
2022-10-09T23:53:46.334Z,88.68
2022-10-09T23:56:20.616Z,88.61
2022-10-09T23:58:48.546Z,88.70
